createdAt,value
2022-10-01T00:01:15.740Z,8.40
2022-10-01T00:06:23.056Z,8.26
2022-10-01T00:11:27.399Z,8.10
2022-10-01T00:16:32.599Z,8.20
2022-10-01T00:21:36.830Z,8.30
2022-10-01T00:26:43.477Z,8.34
2022-10-01T00:31:47.439Z,8.20
2022-10-01T00:36:51.142Z,8.10
2022-10-01T00:41:55.158Z,8.20
2022-10-01T00:47:17.101Z,8.30
2022-10-01T00:52:29.293Z,8.30
2022-10-01T00:57:34.950Z,8.12
2022-10-01T01:02:39.069Z,8.20
2022-10-01T01:07:47.859Z,8.40
2022-10-01T01:13:39.143Z,8.40
2022-10-01T01:19:13.234Z,8.20
2022-10-01T01:24:58.175Z,8.10
2022-10-01T01:30:21.150Z,8.16
2022-10-01T01:35:35.467Z,8.30
2022-10-01T01:40:43.639Z,8.30
2022-10-01T01:45:51.732Z,8.20
2022-10-01T01:51:05.376Z,8.20
2022-10-01T01:56:09.326Z,8.30
2022-10-01T02:01:36.806Z,8.30
2022-10-01T02:07:15.731Z,8.18
2022-10-01T02:13:00.444Z,8.00
2022-10-01T02:18:32.831Z,8.20
2022-10-01T02:23:53.809Z,8.10
2022-10-01T02:29:04.539Z,7.90
2022-10-01T02:34:12.822Z,7.80
2022-10-01T02:39:20.771Z,7.88
2022-10-01T02:44:38.510Z,7.78
2022-10-01T02:49:42.382Z,7.50
2022-10-01T02:55:06.237Z,7.50
2022-10-01T03:00:15.749Z,7.70
2022-10-01T03:05:21.019Z,7.60
2022-10-01T03:10:24.760Z,7.46
2022-10-01T03:15:29.516Z,7.20
2022-10-01T03:20:33.342Z,7.20
2022-10-01T03:25:37.263Z,7.32
2022-10-01T03:30:40.985Z,7.30
2022-10-01T03:35:44.801Z,7.10
2022-10-01T03:40:48.734Z,6.90
2022-10-01T03:45:52.483Z,6.82
2022-10-01T03:50:59.298Z,7.00
2022-10-01T03:56:05.332Z,6.90
2022-10-01T04:01:09.153Z,6.70
2022-10-01T04:06:13.551Z,6.50
2022-10-01T04:11:17.260Z,6.60
2022-10-01T04:16:21.247Z,6.80
2022-10-01T04:21:25.294Z,6.66
2022-10-01T04:26:30.117Z,6.50
2022-10-01T04:31:35.747Z,6.50
2022-10-01T04:36:40.126Z,6.60
2022-10-01T04:41:43.812Z,6.60
2022-10-01T04:46:47.799Z,6.44
2022-10-01T04:51:51.484Z,6.42
2022-10-01T04:56:55.418Z,6.54
2022-10-01T05:01:59.293Z,6.50
2022-10-01T05:07:03.265Z,6.40
2022-10-01T05:12:08.631Z,6.36
2022-10-01T05:17:12.453Z,6.40
2022-10-01T05:22:17.202Z,6.70
2022-10-01T05:27:21.021Z,7.06
2022-10-01T05:32:25.039Z,7.20
2022-10-01T05:37:29.122Z,7.30
2022-10-01T05:42:32.801Z,7.50
2022-10-01T05:47:36.523Z,7.80
2022-10-01T05:52:41.784Z,8.10
2022-10-01T05:57:45.504Z,8.22
2022-10-01T06:02:53.618Z,8.40
2022-10-01T06:07:58.087Z,8.70
2022-10-01T06:13:04.765Z,9.10
2022-10-01T06:18:11.501Z,9.30
2022-10-01T06:23:15.896Z,9.56
2022-10-01T06:28:20.089Z,9.80
2022-10-01T06:33:24.465Z,10.20
2022-10-01T06:38:28.286Z,10.70
2022-10-01T06:43:34.165Z,11.16
2022-10-01T06:48:37.983Z,11.50
2022-10-01T06:53:42.020Z,11.80
2022-10-01T06:58:45.733Z,12.24
2022-10-01T07:03:49.665Z,12.60
2022-10-01T07:08:53.411Z,13.00
2022-10-01T07:13:58.258Z,13.30
2022-10-01T07:19:02.673Z,13.40
2022-10-01T07:24:07.106Z,13.50
2022-10-01T07:29:11.363Z,13.70
2022-10-01T07:34:16.599Z,13.92
2022-10-01T07:39:45.615Z,14.40
2022-10-01T07:44:49.444Z,14.52
2022-10-01T07:49:58.470Z,14.60
2022-10-01T07:55:03.134Z,14.80
2022-10-01T08:00:10.046Z,14.90
2022-10-01T08:05:18.386Z,15.08
2022-10-01T08:10:23.646Z,15.50
2022-10-01T08:15:29.193Z,15.60
2022-10-01T08:20:33.945Z,15.56
2022-10-01T08:31:22.098Z,16.10
2022-10-01T08:36:31.453Z,16.00
2022-10-01T08:42:20.160Z,16.00
2022-10-01T08:47:36.404Z,16.30
2022-10-01T08:52:55.450Z,16.56
2022-10-01T08:58:05.137Z,16.54
2022-10-01T09:03:15.326Z,16.70
2022-10-01T09:08:46.455Z,16.90
2022-10-01T09:14:26.232Z,17.00
2022-10-01T09:19:41.154Z,17.40
2022-10-01T09:24:55.562Z,17.40
2022-10-01T09:30:16.957Z,17.40
2022-10-01T09:35:48.189Z,17.72
2022-10-01T09:40:55.692Z,17.86
2022-10-01T09:46:00.363Z,17.90
2022-10-01T09:51:40.249Z,18.10
2022-10-01T09:57:11.941Z,18.30
2022-10-01T10:02:25.074Z,18.20
2022-10-01T10:07:32.919Z,18.28
2022-10-01T10:12:37.400Z,18.48
2022-10-01T10:17:46.739Z,18.40
2022-10-01T10:22:50.872Z,18.60
2022-10-01T10:27:57.240Z,18.70
2022-10-01T10:33:08.501Z,18.78
2022-10-01T10:38:22.725Z,18.70
2022-10-01T10:43:34.831Z,19.00
2022-10-01T10:48:50.557Z,19.00
2022-10-01T10:53:55.502Z,19.30
2022-10-01T10:59:11.093Z,19.32
2022-10-01T11:04:44.790Z,19.60
2022-10-01T11:10:08.703Z,19.80
2022-10-01T11:15:36.999Z,20.00
2022-10-01T11:21:11.655Z,20.20
2022-10-01T11:26:31.534Z,20.60
2022-10-01T11:31:59.986Z,20.90
2022-10-01T11:37:29.081Z,20.50
2022-10-01T11:42:38.464Z,20.30
2022-10-01T11:47:53.149Z,19.66
2022-10-01T11:53:20.080Z,19.30
2022-10-01T11:58:58.138Z,19.60
2022-10-01T12:04:26.626Z,19.60
2022-10-01T12:09:58.428Z,19.30
2022-10-01T12:15:32.119Z,18.80
2022-10-01T12:21:01.173Z,18.60
2022-10-01T12:26:31.610Z,18.40
2022-10-01T12:32:00.597Z,18.30
2022-10-01T12:37:39.445Z,18.30
2022-10-01T12:43:06.520Z,18.30
2022-10-01T12:48:48.190Z,18.40
2022-10-01T12:54:21.709Z,18.10
2022-10-01T12:59:44.944Z,17.90
2022-10-01T13:05:28.580Z,17.70
2022-10-01T13:11:13.469Z,17.60
2022-10-01T13:16:50.201Z,17.60
2022-10-01T13:22:19.502Z,17.42
2022-10-01T13:27:42.895Z,17.40
2022-10-01T13:32:58.878Z,17.40
2022-10-01T13:38:29.839Z,17.40
2022-10-01T13:43:36.180Z,17.40
2022-10-01T13:48:49.305Z,17.40
2022-10-01T13:54:03.475Z,17.72
2022-10-01T13:59:37.064Z,18.10
2022-10-01T14:04:44.410Z,18.30
2022-10-01T14:09:59.959Z,18.20
2022-10-01T14:15:41.454Z,18.26
2022-10-01T14:21:30.953Z,19.46
2022-10-01T14:27:09.290Z,18.80
2022-10-01T14:32:28.985Z,18.50
2022-10-01T14:37:40.112Z,17.90
2022-10-01T14:42:45.127Z,17.30
2022-10-01T14:48:02.785Z,16.70
2022-10-01T14:53:19.528Z,16.40
2022-10-01T14:59:21.304Z,16.00
2022-10-01T15:04:28.666Z,15.68
2022-10-01T15:09:35.273Z,15.48
2022-10-01T15:14:44.025Z,15.30
2022-10-01T15:19:54.207Z,15.10
2022-10-01T15:25:02.728Z,14.90
2022-10-01T15:30:17.204Z,14.80
2022-10-01T15:35:34.165Z,14.60
2022-10-01T15:40:43.967Z,14.50
2022-10-01T15:46:18.416Z,14.46
2022-10-01T15:51:29.592Z,14.30
2022-10-01T15:56:36.754Z,14.10
2022-10-01T16:01:44.888Z,14.18
2022-10-01T16:06:55.986Z,14.10
2022-10-01T16:12:07.419Z,13.90
2022-10-01T16:17:20.306Z,13.84
2022-10-01T16:22:32.143Z,13.80
2022-10-01T16:27:54.021Z,13.60
2022-10-01T16:33:09.056Z,13.50
2022-10-01T16:38:36.238Z,13.50
2022-10-01T16:44:45.501Z,13.46
2022-10-01T16:51:16.757Z,13.50
2022-10-01T17:05:32.138Z,13.48
2022-10-01T17:10:42.304Z,13.40
2022-10-01T17:15:49.385Z,13.40
2022-10-01T17:20:53.533Z,13.30
2022-10-01T17:25:57.855Z,13.10
2022-10-01T17:31:03.001Z,13.10
2022-10-01T17:36:10.864Z,13.10
2022-10-01T17:41:15.378Z,13.00
2022-10-01T17:46:20.348Z,13.00
2022-10-01T17:51:24.409Z,13.00
2022-10-01T17:56:33.330Z,12.90
2022-10-01T18:01:37.542Z,13.00
2022-10-01T18:06:42.444Z,13.00
2022-10-01T18:11:46.613Z,12.90
2022-10-01T18:16:51.697Z,12.96
2022-10-01T18:22:15.039Z,12.90
2022-10-01T18:28:34.277Z,12.90
2022-10-01T18:34:06.490Z,13.00
2022-10-01T18:39:48.050Z,12.90
2022-10-01T18:45:03.885Z,12.80
2022-10-01T18:50:37.678Z,12.80
2022-10-01T18:56:17.654Z,12.70
2022-10-01T19:01:48.621Z,12.70
2022-10-01T19:07:35.460Z,12.60
2022-10-01T19:12:50.377Z,12.70
2022-10-01T19:22:03.437Z,12.70
2022-10-01T19:27:58.059Z,12.70
2022-10-01T19:33:15.667Z,12.70
2022-10-01T19:38:40.390Z,12.60
2022-10-01T19:44:30.400Z,12.60
2022-10-01T19:49:39.793Z,12.50
2022-10-01T19:54:59.556Z,12.50
2022-10-01T20:00:18.680Z,12.50
2022-10-01T20:05:38.540Z,12.50
2022-10-01T20:10:55.136Z,12.50
2022-10-01T20:16:41.523Z,12.50
2022-10-01T20:21:51.342Z,12.40
2022-10-01T20:27:13.285Z,12.44
2022-10-01T20:32:37.061Z,12.30
2022-10-01T20:38:11.741Z,12.30
2022-10-01T20:43:37.355Z,12.12
2022-10-01T20:48:52.714Z,12.20
2022-10-01T20:54:10.999Z,12.20
2022-10-01T20:59:30.354Z,12.10
2022-10-01T21:04:41.362Z,12.10
2022-10-01T21:09:50.534Z,12.20
2022-10-01T21:14:57.301Z,12.10
2022-10-01T21:20:48.258Z,12.00
2022-10-01T21:26:15.837Z,12.00
2022-10-01T21:31:42.141Z,12.00
2022-10-01T21:36:56.297Z,11.90
2022-10-01T21:42:11.964Z,11.90
2022-10-01T21:48:03.696Z,11.90
2022-10-01T21:53:32.944Z,11.80
2022-10-01T21:58:59.208Z,11.62
2022-10-01T22:04:35.792Z,11.50
2022-10-01T22:10:03.148Z,11.50
2022-10-01T22:15:30.503Z,11.40
2022-10-01T22:20:36.295Z,11.40
2022-10-01T22:25:58.054Z,11.50
2022-10-01T22:31:07.080Z,11.30
2022-10-01T22:37:02.419Z,11.30
2022-10-01T22:42:21.231Z,11.30
2022-10-01T22:47:43.138Z,11.30
2022-10-01T22:53:11.974Z,11.20
2022-10-01T22:59:09.201Z,11.02
2022-10-01T23:04:59.442Z,11.00
2022-10-01T23:10:10.967Z,11.00
2022-10-01T23:15:40.272Z,11.00
2022-10-01T23:21:15.633Z,11.10
2022-10-01T23:26:40.954Z,11.10
2022-10-01T23:32:19.494Z,11.20
2022-10-01T23:38:03.779Z,11.20
2022-10-01T23:43:24.585Z,11.20
2022-10-01T23:48:48.805Z,11.12
2022-10-01T23:54:19.865Z,11.16
2022-10-01T23:59:50.976Z,11.20
